createdAt,value
2018-08-19T00:00:11.034Z,0
2018-08-19T00:01:11.049Z,0
2018-08-19T00:02:10.873Z,0
2018-08-19T00:03:10.867Z,0
2018-08-19T00:04:11.116Z,0
2018-08-19T00:05:11.005Z,0
2018-08-19T00:06:10.617Z,0
2018-08-19T00:07:10.870Z,0
2018-08-19T00:08:10.870Z,0
2018-08-19T00:09:10.878Z,0
2018-08-19T00:10:10.753Z,0
2018-08-19T00:11:10.628Z,0
2018-08-19T00:12:10.641Z,0
2018-08-19T00:13:10.881Z,0
2018-08-19T00:14:11.174Z,0
2018-08-19T00:15:10.518Z,0
2018-08-19T00:16:11.159Z,0
2018-08-19T00:17:10.645Z,0
2018-08-19T00:18:10.895Z,0
2018-08-19T00:19:11.146Z,0
2018-08-19T00:20:10.876Z,0
2018-08-19T00:21:10.905Z,0
2018-08-19T00:22:10.907Z,0
2018-08-19T00:23:10.909Z,0
2018-08-19T00:24:10.962Z,0
2018-08-19T00:25:10.493Z,0
2018-08-19T00:26:10.921Z,0
2018-08-19T00:27:11.188Z,0
2018-08-19T00:28:11.191Z,0
2018-08-19T00:29:10.924Z,0
2018-08-19T00:30:11.161Z,0
2018-08-19T00:31:10.678Z,0
2018-08-19T00:32:10.938Z,0
2018-08-19T00:33:10.677Z,0
2018-08-19T00:34:10.684Z,0
2018-08-19T00:35:10.826Z,0
2018-08-19T00:36:11.198Z,0
2018-08-19T00:37:10.930Z,0
2018-08-19T00:38:10.710Z,0
2018-08-19T00:39:10.714Z,0
2018-08-19T00:40:11.066Z,0
2018-08-19T00:41:10.950Z,0
2018-08-19T00:42:10.713Z,0
2018-08-19T00:43:10.950Z,0
2018-08-19T00:44:10.952Z,0
2018-08-19T00:45:11.116Z,0
2018-08-19T00:46:10.698Z,0
2018-08-19T00:47:10.712Z,0
2018-08-19T00:48:10.955Z,0
2018-08-19T00:49:10.957Z,0
2018-08-19T00:50:10.978Z,0
2018-08-19T00:51:10.719Z,0
2018-08-19T00:52:10.991Z,0
2018-08-19T00:53:10.997Z,0
2018-08-19T00:54:10.985Z,0
2018-08-19T00:55:11.286Z,0
2018-08-19T00:56:11.235Z,0
2018-08-19T00:57:11.252Z,0
2018-08-19T00:58:10.484Z,0
2018-08-19T00:59:10.982Z,0
2018-08-19T01:00:10.930Z,0
2018-08-19T01:01:10.758Z,0
2018-08-19T01:02:11.261Z,0
2018-08-19T01:03:10.734Z,0
2018-08-19T01:04:10.498Z,0
2018-08-19T01:05:10.912Z,0
2018-08-19T01:06:11.011Z,0
2018-08-19T01:07:10.994Z,0
2018-08-19T01:08:10.825Z,0
2018-08-19T01:09:11.273Z,0
2018-08-19T01:10:10.864Z,0
2018-08-19T01:11:10.815Z,0
2018-08-19T01:12:11.013Z,0
2018-08-19T01:13:10.755Z,0
2018-08-19T01:14:10.762Z,0
2018-08-19T01:15:10.651Z,0
2018-08-19T01:16:11.009Z,0
2018-08-19T01:17:11.022Z,0
2018-08-19T01:18:10.779Z,0
2018-08-19T01:19:11.272Z,0
2018-08-19T01:20:11.162Z,0
2018-08-19T01:21:11.290Z,0
2018-08-19T01:22:11.017Z,0
2018-08-19T01:23:10.786Z,0
2018-08-19T01:24:11.284Z,0
2018-08-19T01:25:11.241Z,0
2018-08-19T01:26:10.791Z,0
2018-08-19T01:27:11.032Z,0
2018-08-19T01:28:11.302Z,0
2018-08-19T01:29:11.026Z,0
2018-08-19T01:30:10.551Z,0
2018-08-19T01:31:10.786Z,0
2018-08-19T01:32:10.786Z,0
2018-08-19T01:33:11.307Z,0
2018-08-19T01:34:10.801Z,0
2018-08-19T01:35:11.253Z,0
2018-08-19T01:36:10.799Z,0
2018-08-19T01:37:11.068Z,0
2018-08-19T01:38:11.080Z,0
2018-08-19T01:39:10.799Z,0
2018-08-19T01:40:10.861Z,0
2018-08-19T01:41:11.077Z,0
2018-08-19T01:42:11.076Z,0
2018-08-19T01:43:11.063Z,0
2018-08-19T01:44:10.819Z,0
2018-08-19T01:45:10.866Z,0
2018-08-19T01:46:11.075Z,0
2018-08-19T01:47:10.823Z,0
2018-08-19T01:48:11.231Z,0
2018-08-19T01:49:10.817Z,0
2018-08-19T01:50:11.544Z,0
2018-08-19T01:51:11.341Z,0
2018-08-19T01:52:10.574Z,0
2018-08-19T01:53:11.382Z,0
2018-08-19T01:54:11.096Z,0
2018-08-19T01:55:11.348Z,0
2018-08-19T01:56:11.083Z,0
2018-08-19T01:57:10.822Z,0
2018-08-19T01:58:11.081Z,0
2018-08-19T01:59:11.086Z,0
2018-08-19T02:00:11.066Z,0
2018-08-19T02:01:11.341Z,0
2018-08-19T02:02:11.091Z,0
2018-08-19T02:03:10.855Z,0
2018-08-19T02:04:10.849Z,0
2018-08-19T02:05:11.206Z,0
2018-08-19T02:06:11.098Z,0
2018-08-19T02:07:11.102Z,0
2018-08-19T02:08:10.853Z,0
2018-08-19T02:09:11.107Z,0
2018-08-19T02:10:10.731Z,0
2018-08-19T02:11:10.595Z,0
2018-08-19T02:12:11.112Z,0
2018-08-19T02:13:11.375Z,0
2018-08-19T02:14:10.840Z,0
2018-08-19T02:15:11.301Z,0
2018-08-19T02:16:11.114Z,0
2018-08-19T02:17:11.367Z,0
2018-08-19T02:18:10.867Z,0
2018-08-19T02:19:10.859Z,0
2018-08-19T02:20:11.239Z,0
2018-08-19T02:21:11.124Z,0
2018-08-19T02:22:11.119Z,0
2018-08-19T02:23:11.137Z,0
2018-08-19T02:24:11.140Z,0
2018-08-19T02:25:11.260Z,0
2018-08-19T02:26:11.123Z,0
2018-08-19T02:27:11.143Z,0
2018-08-19T02:28:10.619Z,0
2018-08-19T02:29:11.125Z,0
2018-08-19T02:30:11.019Z,0
2018-08-19T02:31:10.886Z,0
2018-08-19T02:32:11.159Z,0
2018-08-19T02:33:10.621Z,0
2018-08-19T02:34:11.142Z,0
2018-08-19T02:35:11.399Z,0
2018-08-19T02:36:11.161Z,0
2018-08-19T02:37:11.396Z,0
2018-08-19T02:38:10.908Z,0
2018-08-19T02:39:10.904Z,0
2018-08-19T02:40:11.041Z,0
2018-08-19T02:41:11.155Z,0
2018-08-19T02:42:10.888Z,0
2018-08-19T02:43:11.140Z,0
2018-08-19T02:44:10.924Z,0
2018-08-19T02:45:11.597Z,0
2018-08-19T02:46:11.149Z,0
2018-08-19T02:47:11.154Z,0
2018-08-19T02:48:11.172Z,0
2018-08-19T02:49:10.930Z,0
2018-08-19T02:50:11.082Z,0
2018-08-19T02:51:10.918Z,0
2018-08-19T02:52:11.166Z,0
2018-08-19T02:53:10.927Z,0
2018-08-19T02:54:11.170Z,0
2018-08-19T02:55:11.679Z,0
2018-08-19T02:56:11.170Z,0
2018-08-19T02:57:11.181Z,0
2018-08-19T02:58:11.421Z,0
2018-08-19T02:59:10.941Z,0
2018-08-19T03:00:10.795Z,0
2018-08-19T03:01:11.173Z,0
2018-08-19T03:02:10.660Z,0
2018-08-19T03:03:11.182Z,0
2018-08-19T03:04:11.424Z,0
2018-08-19T03:05:11.257Z,0
2018-08-19T03:06:10.680Z,0
2018-08-19T03:07:11.177Z,0
2018-08-19T03:08:11.187Z,0
2018-08-19T03:09:10.936Z,0
2018-08-19T03:10:11.011Z,0
2018-08-19T03:11:11.441Z,0
2018-08-19T03:12:11.461Z,0
2018-08-19T03:13:11.186Z,0
2018-08-19T03:14:11.430Z,0
2018-08-19T03:15:12.099Z,0
2018-08-19T03:16:10.708Z,0
2018-08-19T03:17:11.188Z,0
2018-08-19T03:18:11.446Z,0
2018-08-19T03:19:11.196Z,0
2018-08-19T03:20:10.733Z,0
2018-08-19T03:21:11.215Z,0
2018-08-19T03:22:11.193Z,0
2018-08-19T03:23:11.567Z,0
2018-08-19T03:24:11.213Z,0
2018-08-19T03:25:11.256Z,0
2018-08-19T03:26:11.218Z,0
2018-08-19T03:27:11.205Z,0
2018-08-19T03:28:11.207Z,0
2018-08-19T03:29:10.957Z,0
2018-08-19T03:30:11.144Z,0
2018-08-19T03:31:11.217Z,0
2018-08-19T03:32:11.194Z,0
2018-08-19T03:33:10.965Z,0
2018-08-19T03:34:11.204Z,0
2018-08-19T03:35:11.262Z,0
2018-08-19T03:36:11.493Z,0
2018-08-19T03:37:11.487Z,0
2018-08-19T03:38:12.128Z,0
2018-08-19T03:39:11.238Z,0
2018-08-19T03:40:11.131Z,0
2018-08-19T03:41:11.229Z,0
2018-08-19T03:42:10.958Z,0
2018-08-19T03:43:10.970Z,0
2018-08-19T03:44:11.458Z,0
2018-08-19T03:45:11.625Z,0
2018-08-19T03:46:10.967Z,0
2018-08-19T03:47:11.481Z,0
2018-08-19T03:48:11.238Z,4
2018-08-19T03:49:11.231Z,4
2018-08-19T03:50:11.236Z,4
2018-08-19T03:51:11.231Z,0
2018-08-19T03:52:11.237Z,4
2018-08-19T03:53:10.968Z,4
2018-08-19T03:54:11.250Z,4
2018-08-19T03:55:11.093Z,4
2018-08-19T03:56:11.244Z,4
2018-08-19T03:57:11.501Z,8
2018-08-19T03:58:10.988Z,8
2018-08-19T03:59:11.249Z,8
2018-08-19T04:00:11.381Z,12
2018-08-19T04:01:11.242Z,12
2018-08-19T04:02:11.243Z,16
2018-08-19T04:03:11.234Z,16
2018-08-19T04:04:10.985Z,20
2018-08-19T04:05:11.310Z,24
2018-08-19T04:06:11.007Z,28
2018-08-19T04:07:11.321Z,32
2018-08-19T04:08:11.074Z,36
2018-08-19T04:09:11.535Z,40
2018-08-19T04:10:11.797Z,44
2018-08-19T04:11:11.253Z,48
2018-08-19T04:12:11.499Z,56
2018-08-19T04:13:11.258Z,64
2018-08-19T04:14:11.269Z,72
2018-08-19T04:15:11.078Z,76
2018-08-19T04:16:11.251Z,88
2018-08-19T04:17:11.012Z,96
2018-08-19T04:18:13.133Z,104
2018-08-19T04:19:11.267Z,112
2018-08-19T04:20:11.577Z,124
2018-08-19T04:21:11.259Z,136
2018-08-19T04:22:11.533Z,148
2018-08-19T04:23:11.266Z,160
2018-08-19T04:24:11.022Z,176
2018-08-19T04:25:11.400Z,192
2018-08-19T04:26:11.010Z,212
2018-08-19T04:27:11.021Z,228
2018-08-19T04:28:11.272Z,248
2018-08-19T04:29:12.343Z,272
2018-08-19T04:30:11.570Z,296
2018-08-19T04:31:11.514Z,320
2018-08-19T04:32:11.268Z,340
2018-08-19T04:33:11.533Z,364
2018-08-19T04:34:11.289Z,392
2018-08-19T04:35:10.793Z,420
2018-08-19T04:36:11.525Z,440
2018-08-19T04:37:11.549Z,464
2018-08-19T04:38:11.559Z,492
2018-08-19T04:39:11.581Z,516
2018-08-19T04:40:11.311Z,544
2018-08-19T04:41:11.028Z,576
2018-08-19T04:42:11.801Z,600
2018-08-19T04:43:11.352Z,620
2018-08-19T04:44:11.279Z,656
2018-08-19T04:45:11.027Z,692
2018-08-19T04:46:11.295Z,740
2018-08-19T04:47:11.019Z,788
2018-08-19T04:48:11.283Z,836
2018-08-19T04:49:11.294Z,876
2018-08-19T04:50:11.555Z,920
2018-08-19T04:51:11.559Z,964
2018-08-19T04:52:11.075Z,1012
2018-08-19T04:53:11.288Z,1072
2018-08-19T04:54:11.312Z,1128
2018-08-19T04:55:11.557Z,1172
2018-08-19T04:56:11.310Z,1220
2018-08-19T04:57:11.295Z,1264
2018-08-19T04:58:11.545Z,1320
2018-08-19T04:59:11.562Z,1388
2018-08-19T05:00:11.391Z,1464
2018-08-19T05:01:11.060Z,1532
2018-08-19T05:02:12.124Z,1592
2018-08-19T05:03:11.328Z,1632
2018-08-19T05:04:11.874Z,1660
2018-08-19T05:05:11.084Z,1700
2018-08-19T05:06:11.072Z,1752
2018-08-19T05:07:11.311Z,1820
2018-08-19T05:08:10.930Z,1884
2018-08-19T05:09:11.076Z,1892
2018-08-19T05:10:11.643Z,1972
2018-08-19T05:11:11.598Z,2028
2018-08-19T05:12:11.067Z,2124
2018-08-19T05:13:11.350Z,2228
2018-08-19T05:14:11.364Z,2248
2018-08-19T05:15:11.085Z,2336
2018-08-19T05:16:11.604Z,2496
2018-08-19T05:17:11.658Z,2600
2018-08-19T05:18:11.379Z,2684
2018-08-19T05:19:11.629Z,2840
2018-08-19T05:20:11.382Z,2964
2018-08-19T05:21:11.356Z,3192
2018-08-19T05:22:11.333Z,3268
2018-08-19T05:23:11.615Z,3084
2018-08-19T05:24:11.110Z,3164
2018-08-19T05:25:11.178Z,3488
2018-08-19T05:26:11.648Z,3540
2018-08-19T05:27:11.637Z,3464
2018-08-19T05:28:11.421Z,3676
2018-08-19T05:29:11.363Z,3548
2018-08-19T05:30:11.402Z,3832
2018-08-19T05:31:11.102Z,4132
2018-08-19T05:32:11.369Z,4224
2018-08-19T05:33:10.852Z,4264
2018-08-19T05:34:12.461Z,4312
2018-08-19T05:35:11.475Z,4360
2018-08-19T05:36:11.373Z,4336
2018-08-19T05:37:11.133Z,4152
2018-08-19T05:38:12.017Z,4552
2018-08-19T05:39:11.415Z,5212
2018-08-19T05:40:11.137Z,5472
2018-08-19T05:41:11.675Z,5384
2018-08-19T05:42:11.159Z,4936
2018-08-19T05:43:11.405Z,4736
2018-08-19T05:44:11.703Z,5536
2018-08-19T05:45:11.210Z,5652
2018-08-19T05:46:11.236Z,6168
2018-08-19T05:47:11.940Z,6424
2018-08-19T05:48:11.160Z,6648
2018-08-19T05:49:12.478Z,6796
2018-08-19T05:50:11.641Z,6896
2018-08-19T05:51:11.506Z,7060
2018-08-19T05:52:11.442Z,7132
2018-08-19T05:53:11.726Z,7208
2018-08-19T05:54:11.789Z,7296
2018-08-19T05:55:11.853Z,7344
2018-08-19T05:56:11.185Z,7436
2018-08-19T05:57:11.182Z,7576
2018-08-19T05:58:10.943Z,5832
2018-08-19T05:59:11.209Z,5816
2018-08-19T06:00:11.812Z,5868
2018-08-19T06:01:11.974Z,5888
2018-08-19T06:02:11.467Z,5900
2018-08-19T06:03:11.474Z,5904
2018-08-19T06:04:11.950Z,5904
2018-08-19T06:05:11.823Z,5932
2018-08-19T06:06:11.011Z,5968
2018-08-19T06:07:11.233Z,6020
2018-08-19T06:08:11.249Z,6052
2018-08-19T06:09:11.004Z,6092
2018-08-19T06:10:11.744Z,6132
2018-08-19T06:11:11.503Z,7816
2018-08-19T06:12:11.772Z,7680
2018-08-19T06:13:11.793Z,7660
2018-08-19T06:14:11.052Z,7724
2018-08-19T06:15:11.665Z,7868
2018-08-19T06:16:11.797Z,8044
2018-08-19T06:17:11.560Z,8204
2018-08-19T06:18:11.558Z,8312
2018-08-19T06:19:11.554Z,8388
2018-08-19T06:20:11.692Z,8464
2018-08-19T06:21:11.561Z,8576
2018-08-19T06:22:11.734Z,8680
2018-08-19T06:23:11.328Z,8712
2018-08-19T06:24:11.063Z,8684
2018-08-19T06:25:11.109Z,8672
2018-08-19T06:26:11.601Z,8620
2018-08-19T06:27:11.070Z,8332
2018-08-19T06:28:11.334Z,8172
2018-08-19T06:29:11.598Z,8164
2018-08-19T06:30:11.722Z,7988
2018-08-19T06:31:11.513Z,7848
2018-08-19T06:32:11.344Z,7976
2018-08-19T06:33:11.637Z,8168
2018-08-19T06:34:11.896Z,8228
2018-08-19T06:35:11.673Z,8244
2018-08-19T06:36:11.900Z,8248
2018-08-19T06:37:11.963Z,8568
2018-08-19T06:38:11.130Z,8876
2018-08-19T06:39:11.389Z,9048
2018-08-19T06:40:11.821Z,9300
2018-08-19T06:41:11.925Z,9608
2018-08-19T06:42:11.680Z,9708
2018-08-19T06:43:11.875Z,9856
2018-08-19T06:44:11.716Z,10096
2018-08-19T06:45:11.820Z,9908
2018-08-19T06:46:11.154Z,9700
2018-08-19T06:47:11.418Z,10240
2018-08-19T06:48:11.436Z,10476
2018-08-19T06:49:11.987Z,10488
2018-08-19T06:50:12.168Z,10352
2018-08-19T06:51:12.180Z,9924
2018-08-19T06:52:12.230Z,9816
2018-08-19T06:53:11.464Z,9892
2018-08-19T06:54:11.472Z,9796
2018-08-19T06:55:11.671Z,9744
2018-08-19T06:56:11.472Z,9672
2018-08-19T06:57:11.772Z,9228
2018-08-19T06:58:12.005Z,8836
2018-08-19T06:59:11.556Z,8540
2018-08-19T07:00:11.934Z,8528
2018-08-19T07:01:12.025Z,8240
2018-08-19T07:02:11.527Z,8600
2018-08-19T07:03:12.024Z,8676
2018-08-19T07:04:12.098Z,8808
2018-08-19T07:05:11.856Z,9000
2018-08-19T07:06:11.823Z,9256
2018-08-19T07:07:11.848Z,9724
2018-08-19T07:08:11.555Z,9900
2018-08-19T07:09:12.075Z,10088
2018-08-19T07:10:12.143Z,10060
2018-08-19T07:11:12.107Z,9800
2018-08-19T07:12:11.910Z,8624
2018-08-19T07:13:11.922Z,8252
2018-08-19T07:14:11.570Z,7920
2018-08-19T07:15:12.250Z,7656
2018-08-19T07:16:11.901Z,7484
2018-08-19T07:17:11.876Z,7408
2018-08-19T07:18:11.927Z,7392
2018-08-19T07:19:11.361Z,7432
2018-08-19T07:20:12.144Z,7504
2018-08-19T07:21:12.021Z,7572
2018-08-19T07:22:11.919Z,7616
2018-08-19T07:23:11.656Z,7708
2018-08-19T07:24:11.726Z,8084
2018-08-19T07:25:11.603Z,8584
2018-08-19T07:26:11.644Z,8344
2018-08-19T07:27:12.013Z,7768
2018-08-19T07:28:11.967Z,7808
2018-08-19T07:29:11.444Z,8892
2018-08-19T07:30:12.045Z,8976
2018-08-19T07:31:11.402Z,9120
2018-08-19T07:32:11.694Z,8012
2018-08-19T07:33:11.727Z,7548
2018-08-19T07:34:12.004Z,7412
2018-08-19T07:35:11.796Z,7396
2018-08-19T07:36:11.967Z,7444
2018-08-19T07:37:12.639Z,7548
2018-08-19T07:38:11.965Z,8476
2018-08-19T07:39:12.242Z,7916
2018-08-19T07:40:12.112Z,7740
2018-08-19T07:41:11.993Z,7804
2018-08-19T07:42:12.295Z,8592
2018-08-19T07:43:11.462Z,10220
2018-08-19T07:44:12.014Z,10164
2018-08-19T07:45:12.552Z,9276
2018-08-19T07:46:12.277Z,8480
2018-08-19T07:47:11.891Z,9180
2018-08-19T07:48:12.029Z,10968
2018-08-19T07:49:11.518Z,9408
2018-08-19T07:50:12.135Z,10384
2018-08-19T07:51:12.297Z,11172
2018-08-19T07:52:12.284Z,10220
2018-08-19T07:53:11.792Z,8920
2018-08-19T07:54:12.096Z,8956
2018-08-19T07:55:11.669Z,10592
2018-08-19T07:56:12.070Z,11812
2018-08-19T07:57:12.084Z,11928
2018-08-19T07:58:12.091Z,12276
2018-08-19T07:59:11.639Z,12384
2018-08-19T08:00:12.088Z,12516
2018-08-19T08:01:12.128Z,12684
2018-08-19T08:02:12.356Z,12712
2018-08-19T08:03:11.878Z,12500
2018-08-19T08:04:11.601Z,12240
2018-08-19T08:05:12.291Z,11964
2018-08-19T08:06:11.883Z,12144
2018-08-19T08:07:11.926Z,12036
2018-08-19T08:08:11.903Z,12060
2018-08-19T08:09:11.903Z,12120
2018-08-19T08:10:12.076Z,11520
2018-08-19T08:11:12.136Z,11372
2018-08-19T08:12:11.887Z,12252
2018-08-19T08:13:11.922Z,12048
2018-08-19T08:14:12.278Z,11636
2018-08-19T08:15:12.043Z,11376
2018-08-19T08:16:12.173Z,10608
2018-08-19T08:17:12.197Z,9384
2018-08-19T08:18:12.193Z,8984
2018-08-19T08:19:11.762Z,8988
2018-08-19T08:20:12.242Z,9172
2018-08-19T08:21:12.497Z,10280
2018-08-19T08:22:12.238Z,10024
2018-08-19T08:23:12.013Z,11048
2018-08-19T08:24:12.493Z,11124
2018-08-19T08:25:12.506Z,11616
2018-08-19T08:26:12.248Z,11884
2018-08-19T08:27:12.513Z,11948
2018-08-19T08:28:12.009Z,11460
2018-08-19T08:29:12.413Z,10456
2018-08-19T08:30:12.798Z,10392
2018-08-19T08:31:12.583Z,9764
2018-08-19T08:32:11.796Z,9536
2018-08-19T08:33:12.307Z,9244
2018-08-19T08:34:12.592Z,9204
2018-08-19T08:35:12.725Z,9332
2018-08-19T08:36:12.311Z,9916
2018-08-19T08:37:11.863Z,9428
2018-08-19T08:38:12.573Z,9300
2018-08-19T08:39:11.846Z,9296
2018-08-19T08:40:12.700Z,9352
2018-08-19T08:41:12.078Z,9584
2018-08-19T08:42:12.329Z,9728
2018-08-19T08:43:11.848Z,10012
2018-08-19T08:44:12.377Z,10212
2018-08-19T08:45:12.199Z,9992
2018-08-19T08:46:12.364Z,9868
2018-08-19T08:47:12.131Z,9636
2018-08-19T08:48:12.383Z,9848
2018-08-19T08:49:12.389Z,9428
2018-08-19T08:50:13.075Z,9196
2018-08-19T08:51:11.953Z,9188
2018-08-19T08:52:12.143Z,9144
2018-08-19T08:53:12.309Z,9232
2018-08-19T08:54:12.421Z,9412
2018-08-19T08:55:12.598Z,10108
2018-08-19T08:56:12.196Z,10504
2018-08-19T08:57:12.453Z,10692
2018-08-19T08:58:12.434Z,11548
2018-08-19T08:59:12.456Z,11692
2018-08-19T09:00:12.813Z,10392
2018-08-19T09:01:12.189Z,10216
2018-08-19T09:02:12.446Z,9904
2018-08-19T09:03:13.045Z,10172
2018-08-19T09:04:12.716Z,10848
2018-08-19T09:05:12.762Z,10788
2018-08-19T09:06:12.737Z,10916
2018-08-19T09:07:12.479Z,10644
2018-08-19T09:08:12.498Z,10800
2018-08-19T09:09:12.768Z,11096
2018-08-19T09:10:12.263Z,10752
2018-08-19T09:11:12.505Z,10384
2018-08-19T09:12:11.988Z,10284
2018-08-19T09:13:12.767Z,9916
2018-08-19T09:14:12.802Z,9808
2018-08-19T09:15:12.501Z,10472
2018-08-19T09:16:12.554Z,9932
2018-08-19T09:17:12.030Z,9564
2018-08-19T09:18:12.807Z,9196
2018-08-19T09:19:12.905Z,9212
2018-08-19T09:20:12.109Z,9384
2018-08-19T09:21:12.316Z,9432
2018-08-19T09:22:12.575Z,9580
2018-08-19T09:23:13.644Z,10348
2018-08-19T09:24:12.853Z,10740
2018-08-19T09:25:12.501Z,13296
2018-08-19T09:26:12.584Z,13276
2018-08-19T09:27:12.336Z,13052
2018-08-19T09:28:12.332Z,12792
2018-08-19T09:29:12.869Z,13204
2018-08-19T09:30:12.526Z,13344
2018-08-19T09:31:12.868Z,11852
2018-08-19T09:32:12.622Z,11816
2018-08-19T09:33:12.648Z,11028
2018-08-19T09:34:12.384Z,12844
2018-08-19T09:35:12.415Z,12932
2018-08-19T09:36:12.641Z,13208
2018-08-19T09:37:12.909Z,13724
2018-08-19T09:38:12.401Z,13588
2018-08-19T09:39:12.649Z,13572
2018-08-19T09:40:12.856Z,12652
2018-08-19T09:41:12.692Z,11988
2018-08-19T09:42:12.429Z,12112
2018-08-19T09:43:12.412Z,12540
2018-08-19T09:44:12.445Z,12828
2018-08-19T09:45:13.345Z,12740
2018-08-19T09:46:12.939Z,12604
2018-08-19T09:47:12.744Z,12852
2018-08-19T09:48:12.448Z,12028
2018-08-19T09:49:12.709Z,11804
2018-08-19T09:50:12.622Z,11136
2018-08-19T09:51:12.455Z,11376
2018-08-19T09:52:12.982Z,11192
2018-08-19T09:53:12.732Z,11560
2018-08-19T09:54:12.656Z,11672
2018-08-19T09:55:12.969Z,11004
2018-08-19T09:56:12.785Z,10824
2018-08-19T09:57:13.092Z,11548
2018-08-19T09:58:13.105Z,11360
2018-08-19T09:59:12.526Z,10836
2018-08-19T10:00:12.674Z,10688
2018-08-19T10:01:12.542Z,11068
2018-08-19T10:02:12.542Z,10932
2018-08-19T10:03:12.545Z,11132
2018-08-19T10:04:13.047Z,11188
2018-08-19T10:05:12.877Z,11664
2018-08-19T10:06:13.061Z,11984
2018-08-19T10:07:12.816Z,11464
2018-08-19T10:08:12.572Z,10548
2018-08-19T10:09:13.085Z,10120
2018-08-19T10:10:12.593Z,10160
2018-08-19T10:11:12.580Z,10356
2018-08-19T10:12:12.870Z,10496
2018-08-19T10:13:12.868Z,10376
2018-08-19T10:14:12.602Z,10416
2018-08-19T10:15:12.977Z,10388
2018-08-19T10:16:12.879Z,10420
2018-08-19T10:17:12.644Z,10396
2018-08-19T10:18:12.877Z,10484
2018-08-19T10:19:12.884Z,10960
2018-08-19T10:20:13.523Z,10084
2018-08-19T10:21:13.161Z,10372
2018-08-19T10:22:13.166Z,10536
2018-08-19T10:23:12.922Z,10132
2018-08-19T10:24:12.927Z,10212
2018-08-19T10:25:13.170Z,10244
2018-08-19T10:26:12.929Z,10228
2018-08-19T10:27:12.925Z,10232
2018-08-19T10:28:12.941Z,10260
2018-08-19T10:29:13.183Z,10388
2018-08-19T10:30:13.123Z,10472
2018-08-19T10:31:13.296Z,10636
2018-08-19T10:32:12.702Z,11288
2018-08-19T10:33:13.220Z,11180
2018-08-19T10:34:12.719Z,11464
2018-08-19T10:35:12.839Z,11272
2018-08-19T10:36:13.267Z,10884
2018-08-19T10:37:12.979Z,10280
2018-08-19T10:38:13.245Z,10100
2018-08-19T10:39:12.812Z,9564
2018-08-19T10:40:13.378Z,9688
2018-08-19T10:41:12.997Z,9896
2018-08-19T10:42:12.996Z,9904
2018-08-19T10:43:13.272Z,9952
2018-08-19T10:44:13.275Z,9816
2018-08-19T10:45:13.135Z,9692
2018-08-19T10:46:13.110Z,9536
2018-08-19T10:47:12.768Z,9412
2018-08-19T10:48:12.806Z,9324
2018-08-19T10:49:13.041Z,9220
2018-08-19T10:50:13.877Z,9156
2018-08-19T10:51:13.336Z,9144
2018-08-19T10:52:13.089Z,9140
2018-08-19T10:53:13.151Z,9128
2018-08-19T10:54:13.335Z,9052
2018-08-19T10:55:13.250Z,8944
2018-08-19T10:56:13.122Z,8660
2018-08-19T10:57:12.825Z,7960
2018-08-19T10:58:13.089Z,7748
2018-08-19T10:59:13.110Z,7828
2018-08-19T11:00:12.942Z,8104
2018-08-19T11:01:13.365Z,7952
2018-08-19T11:02:13.100Z,7964
2018-08-19T11:03:13.112Z,7888
2018-08-19T11:04:12.856Z,7680
2018-08-19T11:05:13.744Z,7700
2018-08-19T11:06:13.389Z,7968
2018-08-19T11:07:12.620Z,8320
2018-08-19T11:08:12.896Z,8712
2018-08-19T11:09:12.740Z,8448
2018-08-19T11:10:13.004Z,8528
2018-08-19T11:11:13.163Z,8404
2018-08-19T11:12:12.915Z,8260
2018-08-19T11:13:13.161Z,8508
2018-08-19T11:14:13.171Z,8488
2018-08-19T11:15:13.508Z,8416
2018-08-19T11:16:12.939Z,8368
2018-08-19T11:17:13.457Z,8280
2018-08-19T11:18:13.442Z,8280
2018-08-19T11:19:13.195Z,8208
2018-08-19T11:20:13.747Z,8228
2018-08-19T11:21:13.468Z,8168
2018-08-19T11:22:13.483Z,8196
2018-08-19T11:23:13.223Z,8172
2018-08-19T11:24:13.498Z,8168
2018-08-19T11:25:13.588Z,8172
2018-08-19T11:26:13.019Z,8184
2018-08-19T11:27:13.008Z,8172
2018-08-19T11:28:13.021Z,8196
2018-08-19T11:29:13.265Z,8200
2018-08-19T11:30:13.485Z,8180
2018-08-19T11:31:13.517Z,8212
2018-08-19T11:32:13.262Z,8236
2018-08-19T11:33:13.275Z,8224
2018-08-19T11:34:13.381Z,8200
2018-08-19T11:35:13.767Z,8152
2018-08-19T11:36:13.302Z,8080
2018-08-19T11:37:13.549Z,8004
2018-08-19T11:38:13.303Z,7936
2018-08-19T11:39:13.328Z,7908
2018-08-19T11:40:13.248Z,7852
2018-08-19T11:41:13.324Z,7844
2018-08-19T11:42:13.064Z,7816
2018-08-19T11:43:13.639Z,7796
2018-08-19T11:44:13.079Z,7760
2018-08-19T11:45:13.681Z,7736
2018-08-19T11:46:13.620Z,7704
2018-08-19T11:47:13.374Z,7672
2018-08-19T11:48:13.348Z,7632
2018-08-19T11:49:13.361Z,7584
2018-08-19T11:50:14.170Z,7560
2018-08-19T11:51:13.115Z,7644
2018-08-19T11:52:12.866Z,7676
2018-08-19T11:53:13.683Z,7692
2018-08-19T11:54:13.125Z,7680
2018-08-19T11:55:13.437Z,7636
2018-08-19T11:56:13.140Z,7596
2018-08-19T11:57:13.394Z,7552
2018-08-19T11:58:13.136Z,7512
2018-08-19T11:59:13.404Z,7476
2018-08-19T12:00:13.465Z,7444
2018-08-19T12:01:13.782Z,7420
2018-08-19T12:02:14.159Z,7400
2018-08-19T12:03:13.698Z,7368
2018-08-19T12:04:13.442Z,7320
2018-08-19T12:05:13.464Z,7304
2018-08-19T12:06:13.440Z,7296
2018-08-19T12:07:13.726Z,7268
2018-08-19T12:08:13.715Z,7264
2018-08-19T12:09:13.715Z,7244
2018-08-19T12:10:13.501Z,7228
2018-08-19T12:11:13.479Z,7196
2018-08-19T12:12:13.219Z,7168
2018-08-19T12:13:13.769Z,7132
2018-08-19T12:14:13.747Z,7092
2018-08-19T12:15:13.650Z,7048
2018-08-19T12:16:13.775Z,7016
2018-08-19T12:17:14.001Z,6992
2018-08-19T12:18:13.278Z,6972
2018-08-19T12:19:13.512Z,6988
2018-08-19T12:20:14.637Z,6996
2018-08-19T12:21:13.797Z,6984
2018-08-19T12:22:13.271Z,6964
2018-08-19T12:23:13.542Z,6960
2018-08-19T12:24:13.283Z,6936
2018-08-19T12:25:13.854Z,6920
2018-08-19T12:26:13.565Z,6916
2018-08-19T12:27:13.046Z,6904
2018-08-19T12:28:13.320Z,6868
2018-08-19T12:29:13.319Z,6872
2018-08-19T12:30:13.652Z,6856
2018-08-19T12:31:13.866Z,6844
2018-08-19T12:32:13.851Z,6836
2018-08-19T12:33:13.344Z,6828
2018-08-19T12:34:13.348Z,6796
2018-08-19T12:35:13.702Z,6772
2018-08-19T12:36:13.870Z,6740
2018-08-19T12:37:13.632Z,6724
2018-08-19T12:38:13.644Z,6692
2018-08-19T12:39:13.374Z,6664
2018-08-19T12:40:13.702Z,6652
2018-08-19T12:41:13.637Z,6616
2018-08-19T12:42:13.899Z,6604
2018-08-19T12:43:13.903Z,6592
2018-08-19T12:44:13.694Z,6572
2018-08-19T12:45:13.725Z,6548
2018-08-19T12:46:13.659Z,6532
2018-08-19T12:47:13.684Z,6528
2018-08-19T12:48:13.700Z,6512
2018-08-19T12:49:13.682Z,6500
2018-08-19T12:50:14.290Z,6484
2018-08-19T12:51:13.681Z,6460
2018-08-19T12:52:13.700Z,6452
2018-08-19T12:53:13.438Z,6440
2018-08-19T12:54:13.456Z,6428
2018-08-19T12:55:13.825Z,6404
2018-08-19T12:56:13.981Z,6404
2018-08-19T12:57:13.465Z,6396
2018-08-19T12:58:13.211Z,6400
2018-08-19T12:59:13.225Z,6388
2018-08-19T13:00:13.951Z,6400
2018-08-19T13:01:13.746Z,6396
2018-08-19T13:02:13.524Z,6404
2018-08-19T13:03:13.266Z,6384
2018-08-19T13:04:13.521Z,6384
2018-08-19T13:05:14.039Z,6380
2018-08-19T13:06:14.044Z,6356
2018-08-19T13:07:13.783Z,6352
2018-08-19T13:08:13.663Z,6352
2018-08-19T13:09:13.523Z,6352
2018-08-19T13:10:13.621Z,6348
2018-08-19T13:11:13.541Z,6344
2018-08-19T13:12:13.820Z,6336
2018-08-19T13:13:13.577Z,6332
2018-08-19T13:14:14.067Z,6332
2018-08-19T13:15:13.732Z,6324
2018-08-19T13:16:13.339Z,6324
2018-08-19T13:17:14.115Z,6312
2018-08-19T13:18:14.100Z,6320
2018-08-19T13:19:14.114Z,6328
2018-08-19T13:20:13.700Z,6380
2018-08-19T13:21:13.860Z,6400
2018-08-19T13:22:13.349Z,6368
2018-08-19T13:23:14.392Z,6364
2018-08-19T13:24:13.647Z,6312
2018-08-19T13:25:14.318Z,6340
2018-08-19T13:26:14.161Z,6356
2018-08-19T13:27:14.177Z,6356
2018-08-19T13:28:13.656Z,6348
2018-08-19T13:29:13.408Z,6356
2018-08-19T13:30:13.741Z,6360
2018-08-19T13:31:13.653Z,6360
2018-08-19T13:32:13.909Z,6336
2018-08-19T13:33:13.931Z,6300
2018-08-19T13:34:13.677Z,6284
2018-08-19T13:35:13.786Z,6280
2018-08-19T13:36:13.926Z,6280
2018-08-19T13:37:13.436Z,6296
2018-08-19T13:38:14.135Z,6276
2018-08-19T13:39:13.949Z,6304
2018-08-19T13:40:13.496Z,6292